2009 LUPIT (2009287N10154)


On this page: IBTrACS data - Map and Plots - Positions - Intensities - Original source data

Summary

Start Oct 13
End Oct 30
Basin WP
LMI 140 kt
Sources jtwc_wp
tokyo
cma
hko
In WMO? Yes
Previous storm 2009 PATRICIA (EP)
Previous in basin 2009 NEPARTAK (WP)
Concurrent storms 2009 PARMA (WP)
2009 NEPARTAK (WP)
2009 PATRICIA (EP)
2009 LUPIT (WP)
2009 RICK (EP)
2009 NEKI (EP)
2009 TD1019 (WP)
2009 MIRINAE (WP)
Next in basin 2009 TD1019 (WP)
Next storm 2009 RICK (EP)

top of page IBTrACS Data: File Access

No storm imagery available

top of page Plots:

Map of storm track will not appear if FTP is down
Time series of cyclone Maximum Sustained Wind will not appear if FTP is down
Time series of cyclone Minimum Central Pressure will not appear if FTP is down

top of page Track Data:Position

jtwc_wp tokyo cma hko
Date Lat Lon Lat Lon Lat Lon Lat Lon
2009-10-13 18:00:00 9.6 153.5
2009-10-14 00:00:00 9.4 152.3
2009-10-14 06:00:00 10.6 151.0
2009-10-14 12:00:00 10.9 148.8 10.9 148.8 10.5 149.0
2009-10-14 18:00:00 11.1 146.6 11.2 146.8 11.0 146.5 11.2 146.6
2009-10-15 00:00:00 11.7 144.4 11.4 144.3 11.4 144.4 11.3 144.5
2009-10-15 06:00:00 12.2 142.2 11.8 142.1 11.8 142.2 11.8 142.1
2009-10-15 12:00:00 12.4 140.4 12.1 140.2 12.2 140.2 12.2 140.2
2009-10-15 18:00:00 12.7 138.8 12.4 139.1 12.5 139.1 12.4 139.0
2009-10-16 00:00:00 13.2 137.3 13.2 137.4 13.2 137.6 13.0 137.6
2009-10-16 06:00:00 13.8 135.9 13.9 136.0 13.9 136.1 13.8 136.0
2009-10-16 12:00:00 14.2 134.4 14.1 134.3 14.2 134.4 14.2 134.4
2009-10-16 18:00:00 14.5 133.3 14.5 133.2 14.4 133.3 14.5 133.2
2009-10-17 00:00:00 15.0 132.8 15.1 132.7 15.1 132.8 15.1 132.7
2009-10-17 06:00:00 15.6 132.4 15.7 132.3 15.6 132.3 15.6 132.3
2009-10-17 12:00:00 16.2 132.4 16.1 132.3 16.1 132.3 16.1 132.3
2009-10-17 18:00:00 16.7 132.6 16.7 132.5 16.7 132.5 16.7 132.5
2009-10-18 00:00:00 17.0 132.9 17.1 132.9 17.1 132.9 17.1 132.9
2009-10-18 06:00:00 17.3 133.5 17.3 133.6 17.3 133.6 17.3 133.5
2009-10-18 12:00:00 17.7 134.0 17.6 134.0 17.6 134.0 17.7 134.0
2009-10-18 18:00:00 18.0 134.2 18.0 134.2 18.0 134.2 18.0 134.2
2009-10-19 00:00:00 18.5 134.1 18.5 134.1 18.5 134.1 18.6 134.1
2009-10-19 06:00:00 19.0 133.3 19.0 133.2 19.0 133.2 19.0 133.2
2009-10-19 12:00:00 19.4 132.3 19.3 132.4 19.3 132.4 19.3 132.3
2009-10-19 18:00:00 19.8 131.4 19.8 131.5 19.8 131.5 19.8 131.3
jtwc_wp tokyo cma hko
2009-10-20 00:00:00 20.2 130.5 20.1 130.6 20.1 130.6 20.2 130.6
2009-10-20 06:00:00 20.5 129.7 20.5 129.7 20.5 129.7 20.4 129.7
2009-10-20 12:00:00 20.5 128.9 20.6 128.9 20.6 128.9 20.5 128.9
2009-10-20 18:00:00 20.5 128.0 20.5 127.9 20.5 127.9 20.5 127.9
2009-10-21 00:00:00 20.2 127.2 20.2 127.1 20.2 127.1 20.2 127.1
2009-10-21 06:00:00 19.8 126.4 19.8 126.3 19.8 126.4 19.8 126.4
2009-10-21 12:00:00 19.5 125.8 19.3 125.7 19.4 125.7 19.4 125.7
2009-10-21 18:00:00 19.1 125.3 19.1 125.4 19.1 125.3 19.2 125.3
2009-10-22 00:00:00 19.0 124.8 18.9 124.8 18.9 124.8 18.9 124.8
2009-10-22 06:00:00 19.0 124.3 18.9 124.4 18.8 124.3 18.8 124.3
2009-10-22 12:00:00 18.8 124.0 18.9 124.0 18.8 123.9 18.8 123.9
2009-10-22 18:00:00 18.9 123.6 19.0 123.8 18.8 123.7 18.8 123.6
2009-10-23 00:00:00 19.2 123.7 19.1 123.6 18.9 123.4 18.9 123.4
2009-10-23 06:00:00 19.6 123.7 19.4 123.7 19.2 123.4 19.1 123.4
2009-10-23 12:00:00 19.9 124.1 19.8 124.1 19.6 123.7 19.6 123.5
2009-10-23 18:00:00 20.6 124.5 20.4 124.6 20.1 124.4 20.1 124.4
2009-10-24 00:00:00 21.4 124.9 21.4 124.9 21.4 124.9 21.4 124.9
2009-10-24 06:00:00 22.3 125.4 22.3 125.4 22.3 125.4 22.3 125.4
2009-10-24 12:00:00 23.0 125.9 23.1 125.8 23.1 125.8 23.1 125.8
2009-10-24 18:00:00 23.5 126.9 23.4 126.6 23.5 126.7 23.4 126.7
2009-10-25 00:00:00 24.5 127.6 24.3 127.3 24.3 127.4 24.3 127.4
2009-10-25 06:00:00 25.0 128.6 24.9 128.6 25.0 128.7 24.9 128.6
2009-10-25 12:00:00 25.7 130.1 25.7 130.1 25.7 130.2 25.7 130.1
2009-10-25 18:00:00 26.5 131.7 26.5 131.7 26.5 131.7 26.5 131.7
jtwc_wp tokyo cma hko
2009-10-26 00:00:00 27.5 133.5 27.5 133.4 27.5 133.4 27.4 133.3
2009-10-26 06:00:00 29.3 136.1 29.1 135.8 29.1 135.8 29.1 135.8
2009-10-26 12:00:00 31.6 139.6 31.3 139.1 31.3 139.1 31.3 139.1
2009-10-26 18:00:00 34.4 143.1 34.0 142.8 34.0 142.8 34.0 142.8
2009-10-27 00:00:00 38.5 146.0 38.3 146.1 38.3 146.1
2009-10-27 06:00:00 41.8 149.0 41.8 149.0
2009-10-27 12:00:00 44.3 151.6 44.3 151.6
2009-10-27 18:00:00 46.2 155.5 46.2 155.5
2009-10-28 00:00:00 47.9 159.3 47.9 159.3
2009-10-28 06:00:00 49.5 162.7 49.5 162.7
2009-10-28 12:00:00 50.5 164.8 50.5 164.8
2009-10-28 18:00:00 51.1 166.7
2009-10-29 00:00:00 51.3 168.5
2009-10-29 06:00:00 51.6 170.5
2009-10-29 12:00:00 52.3 172.1
2009-10-29 18:00:00 53.3 172.8
2009-10-30 00:00:00 54.1 173.5
2009-10-30 06:00:00 55.2 173.8
2009-10-30 12:00:00 56.1 173.8
2009-10-30 18:00:00 56.9 173.6

top of pageTrack Data:Intensity

jtwc_wp tokyo cma hko
Date Wind Pres Wind Pres Wind Pres Wind Pres
2009-10-13 18:00:00 20. 1006.
2009-10-14 00:00:00 25. 1004.
2009-10-14 06:00:00 30. 1000.
2009-10-14 12:00:00 30. 1000. 1006. 29. 1002.
2009-10-14 18:00:00 30. 1000. 1004. 29. 1002. 25. 1006.
2009-10-15 00:00:00 35. 996. 1004. 29. 1000. 30. 1004.
2009-10-15 06:00:00 40. 993. 1004. 29. 1000. 30. 1002.
2009-10-15 12:00:00 50. 985. 35. 1002. 35. 995. 35. 1000.
2009-10-15 18:00:00 55. 982. 40. 1000. 39. 995. 40. 995.
2009-10-16 00:00:00 60. 978. 45. 992. 45. 990. 45. 990.
2009-10-16 06:00:00 65. 974. 55. 980. 54. 985. 55. 980.
2009-10-16 12:00:00 75. 967. 60. 975. 58. 980. 60. 975.
2009-10-16 18:00:00 80. 963. 65. 970. 64. 975. 65. 970.
2009-10-17 00:00:00 85. 959. 70. 965. 68. 970. 70. 965.
2009-10-17 06:00:00 95. 952. 80. 955. 78. 960. 80. 955.
2009-10-17 12:00:00 105. 944. 85. 950. 87. 950. 90. 945.
2009-10-17 18:00:00 115. 937. 85. 950. 93. 945. 95. 935.
2009-10-18 00:00:00 120. 933. 90. 940. 97. 940. 95. 935.
2009-10-18 06:00:00 125. 929. 90. 940. 107. 935. 100. 930.
2009-10-18 12:00:00 130. 926. 90. 940. 107. 935. 100. 930.
2009-10-18 18:00:00 135. 922. 95. 930. 117. 920. 110. 920.
2009-10-19 00:00:00 140. 918. 95. 930. 117. 920. 110. 920.
2009-10-19 06:00:00 130. 926. 95. 930. 117. 920. 110. 920.
2009-10-19 12:00:00 120. 933. 90. 940. 107. 935. 110. 920.
2009-10-19 18:00:00 110. 941. 85. 945. 97. 940. 100. 930.
jtwc_wp tokyo cma hko
2009-10-20 00:00:00 100. 948. 80. 950. 87. 950. 100. 930.
2009-10-20 06:00:00 90. 956. 80. 950. 87. 950. 90. 945.
2009-10-20 12:00:00 90. 956. 75. 960. 78. 960. 85. 950.
2009-10-20 18:00:00 85. 959. 75. 960. 78. 960. 85. 950.
2009-10-21 00:00:00 85. 959. 70. 965. 78. 960. 85. 950.
2009-10-21 06:00:00 75. 967. 70. 965. 74. 965. 80. 955.
2009-10-21 12:00:00 75. 967. 70. 965. 74. 965. 80. 955.
2009-10-21 18:00:00 75. 967. 70. 965. 74. 965. 80. 955.
2009-10-22 00:00:00 75. 967. 70. 965. 74. 965. 80. 955.
2009-10-22 06:00:00 75. 967. 70. 965. 68. 970. 75. 960.
2009-10-22 12:00:00 75. 967. 65. 970. 64. 975. 70. 965.
2009-10-22 18:00:00 75. 967. 65. 970. 64. 975. 65. 970.
2009-10-23 00:00:00 65. 974. 65. 970. 64. 975. 65. 970.
2009-10-23 06:00:00 55. 982. 60. 975. 58. 980. 60. 975.
2009-10-23 12:00:00 55. 982. 55. 980. 58. 980. 50. 985.
2009-10-23 18:00:00 55. 982. 55. 980. 54. 980. 50. 985.
2009-10-24 00:00:00 55. 982. 55. 980. 54. 980. 50. 985.
2009-10-24 06:00:00 55. 982. 55. 980. 54. 980. 50. 985.
2009-10-24 12:00:00 55. 982. 55. 980. 54. 980. 55. 978.
2009-10-24 18:00:00 55. 982. 55. 980. 54. 980. 50. 980.
2009-10-25 00:00:00 55. 982. 55. 980. 54. 980. 50. 980.
2009-10-25 06:00:00 50. 985. 55. 980. 54. 980. 45. 982.
2009-10-25 12:00:00 50. 985. 55. 980. 54. 980. 45. 982.
2009-10-25 18:00:00 45. 989. 55. 980. 54. 980. 40. 984.
jtwc_wp tokyo cma hko
2009-10-26 00:00:00 45. 989. 55. 980. 54. 980. 40. 984.
2009-10-26 06:00:00 40. 993. 55. 980. 54. 980. 40. 984.
2009-10-26 12:00:00 35. 996. 55. 980. 54. 980. 40. 984.
2009-10-26 18:00:00 35. 996. 55. 980. 54. 980. 40. 984.
2009-10-27 00:00:00 35. 996. 972. 54. 970.
2009-10-27 06:00:00 964. 54. 960.
2009-10-27 12:00:00 956. 58. 955.
2009-10-27 18:00:00 956. 58. 955.
2009-10-28 00:00:00 956. 58. 955.
2009-10-28 06:00:00 956. 58. 955.
2009-10-28 12:00:00 956. 58. 955.
2009-10-28 18:00:00 960.
2009-10-29 00:00:00 968.
2009-10-29 06:00:00 974.
2009-10-29 12:00:00 980.
2009-10-29 18:00:00 984.
2009-10-30 00:00:00 990.
2009-10-30 06:00:00 992.
2009-10-30 12:00:00 994.
2009-10-30 18:00:00 996.

top of page Links to source data

Source Source file Format
jtwc_wp bwp222009.txt ATCF
tokyo bst_all.txt:Line=58511:LUPIT:920 JMA text table
cma CH2009BST.txt:Storm=22:Lupit CMA text table
hko tc-besttrack-data.txt:Line=34018:LUPIT HKO Text table